Time;durP1;ratioP1;P1;durP2;ratioP2;P2;SDS_P1;SDS_P2;PMS_P1;PMS_P2;Temp;Humidity;BMP_temperature;BMP_pressure;BME280_temperature;BME280_humidity;BME280_pressure;Samples;Min_cycle;Max_cycle;Signal;HPM_P1;HPM_P2
2021/10/13 00:02:01;;;;;;;274.52;220.40;;;7.40;99.90;;;;;;5094733;28;20208;-76
2021/10/13 00:04:28;;;;;;;293.60;262.63;;;7.40;99.90;;;;;;5088992;28;20224;-76
2021/10/13 00:06:54;;;;;;;269.58;226.52;;;7.40;99.90;;;;;;5087836;28;20208;-76
2021/10/13 00:09:23;;;;;;;286.35;253.40;;;7.40;99.90;;;;;;5087373;28;20201;-76
2021/10/13 00:11:50;;;;;;;303.42;272.30;;;7.40;99.90;;;;;;5087901;28;20232;-76
2021/10/13 00:14:17;;;;;;;296.13;263.23;;;7.30;99.90;;;;;;5095074;28;20211;-76
2021/10/13 00:16:52;;;;;;;288.50;257.27;;;7.30;99.90;;;;;;5087679;28;20204;-76
2021/10/13 00:19:19;;;;;;;304.00;272.85;;;7.20;99.90;;;;;;5091896;28;20202;-76
2021/10/13 00:21:46;;;;;;;303.60;270.77;;;7.20;99.90;;;;;;5087729;28;20657;-76
2021/10/13 00:24:12;;;;;;;328.88;295.52;;;7.20;99.90;;;;;;5091356;28;20328;-76
2021/10/13 00:26:41;;;;;;;294.05;263.05;;;7.20;99.90;;;;;;5087484;28;20222;-76
2021/10/13 00:29:08;;;;;;;304.83;271.60;;;7.10;99.90;;;;;;5097468;28;20691;-76
2021/10/13 00:31:35;;;;;;;268.23;212.98;;;7.10;99.90;;;;;;5088419;28;20246;-76
2021/10/13 00:34:02;;;;;;;293.73;261.90;;;7.10;99.90;;;;;;5089878;28;20563;-76
2021/10/13 00:36:29;;;;;;;294.95;253.07;;;7.10;99.90;;;;;;5087576;28;20250;-76
2021/10/13 00:38:56;;;;;;;284.77;244.98;;;7.10;99.90;;;;;;5087532;28;20208;-76
2021/10/13 00:41:24;;;;;;;294.20;259.95;;;7.00;99.90;;;;;;5086788;28;20560;-76
2021/10/13 00:43:52;;;;;;;295.27;259.70;;;7.00;99.90;;;;;;5100811;28;20199;-76
2021/10/13 00:46:19;;;;;;;291.55;259.73;;;7.00;99.90;;;;;;5093789;28;20196;-76
2021/10/13 00:48:46;;;;;;;315.35;281.42;;;7.00;99.90;;;;;;5086589;28;20228;-76
2021/10/13 00:51:14;;;;;;;284.60;221.93;;;7.00;99.90;;;;;;5091544;28;20198;-76
2021/10/13 00:53:42;;;;;;;271.73;221.25;;;7.00;99.90;;;;;;5090798;28;20227;-76
2021/10/13 00:56:08;;;;;;;293.10;257.90;;;6.90;99.90;;;;;;5091582;28;20201;-76
2021/10/13 00:58:36;;;;;;;284.58;251.85;;;7.00;99.90;;;;;;5087572;28;20204;-76
2021/10/13 01:01:13;;;;;;;291.55;243.32;;;6.90;99.90;;;;;;5093790;28;20207;-76
2021/10/13 01:03:47;;;;;;;295.23;261.95;;;6.90;99.90;;;;;;5086288;28;20228;-76
2021/10/13 01:06:23;;;;;;;264.35;201.73;;;6.80;99.90;;;;;;5093030;28;20254;-76
2021/10/13 01:09:01;;;;;;;290.95;239.50;;;6.80;99.90;;;;;;5086755;28;20232;-76
2021/10/13 01:11:40;;;;;;;271.08;199.65;;;6.80;99.90;;;;;;5090357;28;20225;-76
2021/10/13 01:14:26;;;;;;;258.35;200.05;;;6.90;99.90;;;;;;5087054;28;20210;-76
2021/10/13 01:16:58;;;;;;;289.73;229.57;;;6.90;99.90;;;;;;5092364;28;20196;-76
2021/10/13 01:19:43;;;;;;;299.05;248.32;;;6.80;99.90;;;;;;5089950;28;20208;-76
2021/10/13 01:22:27;;;;;;;295.27;235.48;;;6.80;99.90;;;;;;5087371;28;20201;-76
2021/10/13 01:25:03;;;;;;;262.95;195.30;;;6.80;99.90;;;;;;5086770;28;20205;-76
2021/10/13 01:27:56;;;;;;;271.98;208.50;;;6.80;99.90;;;;;;5086664;28;20227;-76
2021/10/13 01:30:25;;;;;;;274.25;196.10;;;6.70;99.90;;;;;;5093650;28;20263;-76
2021/10/13 01:32:58;;;;;;;300.25;240.38;;;6.70;99.90;;;;;;5086140;28;20200;-76
2021/10/13 01:35:29;;;;;;;282.70;239.68;;;6.70;99.90;;;;;;5086073;28;20234;-76
2021/10/13 01:38:01;;;;;;;300.55;245.00;;;6.60;99.90;;;;;;5086315;28;20573;-76
2021/10/13 01:40:31;;;;;;;302.05;247.93;;;6.50;99.90;;;;;;5089733;28;20200;-76
2021/10/13 01:43:02;;;;;;;273.05;201.82;;;6.50;99.90;;;;;;5086831;28;20691;-76
2021/10/13 01:45:29;;;;;;;284.45;218.38;;;6.50;99.90;;;;;;5091238;28;20204;-76
2021/10/13 01:47:59;;;;;;;285.83;222.13;;;6.50;99.90;;;;;;5087791;28;20217;-76
2021/10/13 01:50:26;;;;;;;286.23;232.80;;;6.50;99.90;;;;;;5085650;28;20270;-76
2021/10/13 01:52:55;;;;;;;296.55;236.07;;;6.60;99.90;;;;;;5090441;28;20226;-76
2021/10/13 01:55:25;;;;;;;287.73;227.90;;;6.60;99.90;;;;;;5091380;28;20538;-76
2021/10/13 01:57:55;;;;;;;269.98;194.30;;;6.60;99.90;;;;;;5087929;28;20211;-76
2021/10/13 02:00:24;;;;;;;279.40;227.88;;;6.60;99.90;;;;;;5092536;28;20231;-76
2021/10/13 02:02:54;;;;;;;289.98;232.48;;;6.50;99.90;;;;;;5085563;28;20220;-76
2021/10/13 02:05:23;;;;;;;276.45;226.75;;;6.50;99.90;;;;;;5092110;28;20227;-76
2021/10/13 02:07:51;;;;;;;272.08;209.65;;;6.50;99.90;;;;;;5085618;28;20232;-76
2021/10/13 02:10:22;;;;;;;292.85;236.63;;;6.50;99.90;;;;;;5085868;28;20223;-76
2021/10/13 02:12:53;;;;;;;282.45;231.88;;;6.50;99.90;;;;;;5089600;28;20354;-76
2021/10/13 02:15:21;;;;;;;262.52;193.70;;;6.60;99.90;;;;;;5089295;28;20196;-76
2021/10/13 02:17:51;;;;;;;270.55;213.45;;;6.50;99.90;;;;;;5089728;28;20196;-76
2021/10/13 02:20:19;;;;;;;285.90;238.07;;;6.50;99.90;;;;;;5092285;28;20203;-76
2021/10/13 02:22:51;;;;;;;284.20;219.40;;;6.50;99.90;;;;;;5086115;28;20212;-76
2021/10/13 02:25:18;;;;;;;281.27;217.30;;;6.40;99.90;;;;;;5086288;28;20223;-76
2021/10/13 02:27:49;;;;;;;291.60;234.40;;;6.30;99.90;;;;;;5088943;28;20200;-76
2021/10/13 02:30:16;;;;;;;279.80;232.05;;;6.30;99.90;;;;;;5086165;28;20204;-76
2021/10/13 02:32:43;;;;;;;284.10;215.15;;;6.30;99.90;;;;;;5091117;28;20211;-76
2021/10/13 02:35:12;;;;;;;285.00;212.52;;;6.30;99.90;;;;;;5085600;28;20216;-76
2021/10/13 02:37:39;;;;;;;276.23;206.55;;;6.40;99.90;;;;;;5085854;28;20205;-76
2021/10/13 02:40:07;;;;;;;287.70;213.82;;;6.40;99.90;;;;;;5085917;28;20256;-76
2021/10/13 02:42:36;;;;;;;285.70;228.63;;;6.30;99.90;;;;;;5085995;28;20258;-76
2021/10/13 02:45:04;;;;;;;285.02;214.68;;;6.30;99.90;;;;;;5091165;28;20211;-76
2021/10/13 02:47:37;;;;;;;282.15;218.15;;;6.30;99.90;;;;;;5088830;28;20261;-76
2021/10/13 02:50:12;;;;;;;271.35;219.85;;;6.30;99.90;;;;;;5080087;28;20197;-76
2021/10/13 02:52:48;;;;;;;281.52;206.77;;;6.40;99.90;;;;;;5095806;28;20233;-76
2021/10/13 02:55:20;;;;;;;267.13;194.18;;;6.40;99.90;;;;;;5089560;28;20204;-76
2021/10/13 02:57:54;;;;;;;294.80;250.80;;;6.40;99.90;;;;;;5089330;28;20280;-76
2021/10/13 03:00:22;;;;;;;281.83;230.00;;;6.50;99.90;;;;;;5090000;28;20264;-76
2021/10/13 03:02:56;;;;;;;271.33;210.48;;;6.50;99.90;;;;;;5092355;28;20325;-76
2021/10/13 03:05:25;;;;;;;288.65;225.57;;;6.50;99.90;;;;;;5095299;28;20200;-76
2021/10/13 03:07:57;;;;;;;275.63;216.02;;;6.60;99.90;;;;;;5092506;28;20208;-76
2021/10/13 03:10:25;;;;;;;291.48;235.77;;;6.60;99.90;;;;;;5094145;28;20254;-76
2021/10/13 03:12:55;;;;;;;291.55;222.57;;;6.70;99.90;;;;;;5089328;28;20211;-76
2021/10/13 03:15:25;;;;;;;267.80;195.32;;;6.70;99.90;;;;;;5088386;28;20729;-76
2021/10/13 03:17:54;;;;;;;278.65;238.95;;;6.80;99.90;;;;;;5088795;28;20201;-76
2021/10/13 03:20:22;;;;;;;276.05;200.60;;;6.80;99.90;;;;;;5088500;28;20200;-76
2021/10/13 03:22:49;;;;;;;282.38;239.70;;;6.80;99.90;;;;;;5088650;28;20200;-76
2021/10/13 03:25:24;;;;;;;287.00;251.88;;;6.80;99.90;;;;;;5108709;28;20260;-76
2021/10/13 03:27:52;;;;;;;292.48;241.20;;;6.90;99.90;;;;;;5091218;28;20237;-76
2021/10/13 03:30:19;;;;;;;299.00;259.63;;;6.90;99.90;;;;;;5101541;28;20201;-76
2021/10/13 03:32:47;;;;;;;290.48;253.82;;;7.00;99.90;;;;;;5089733;28;20637;-76
2021/10/13 03:35:22;;;;;;;272.13;221.63;;;7.00;99.90;;;;;;5088772;28;20200;-76
2021/10/13 03:37:52;;;;;;;277.08;232.43;;;7.00;99.90;;;;;;5088348;28;20200;-76
2021/10/13 03:40:20;;;;;;;281.40;240.60;;;7.10;99.90;;;;;;5088797;28;20204;-76
2021/10/13 03:42:48;;;;;;;260.92;210.15;;;7.20;99.90;;;;;;5087982;28;20205;-76
2021/10/13 03:45:16;;;;;;;282.95;252.00;;;7.10;99.90;;;;;;5089491;28;20219;-76
2021/10/13 03:47:43;;;;;;;280.80;217.15;;;7.20;99.90;;;;;;5091571;28;20240;-76
2021/10/13 03:50:11;;;;;;;303.60;255.88;;;7.30;99.90;;;;;;5092746;28;20258;-76
2021/10/13 03:52:39;;;;;;;295.00;261.88;;;7.40;99.90;;;;;;5094085;28;20211;-76
2021/10/13 03:55:08;;;;;;;308.92;276.23;;;7.30;99.90;;;;;;5093680;28;20208;-76
2021/10/13 03:57:35;;;;;;;306.05;272.65;;;7.40;99.90;;;;;;5088029;28;20227;-76
2021/10/13 04:00:06;;;;;;;315.50;282.75;;;7.50;99.90;;;;;;5092890;28;20205;-76
2021/10/13 04:02:33;;;;;;;302.55;269.02;;;7.50;99.90;;;;;;5091917;28;20196;-76
2021/10/13 04:05:00;;;;;;;312.27;278.50;;;7.50;99.90;;;;;;5088120;28;20231;-76
2021/10/13 04:07:28;;;;;;;316.67;282.83;;;7.60;99.90;;;;;;5088274;28;20254;-76
2021/10/13 04:09:55;;;;;;;286.10;239.60;;;7.60;99.90;;;;;;5088398;28;20225;-76
2021/10/13 04:12:22;;;;;;;284.83;239.13;;;7.60;99.90;;;;;;5088341;28;20231;-76
2021/10/13 04:14:49;;;;;;;313.42;281.38;;;7.60;99.90;;;;;;5087820;28;20973;-76
2021/10/13 04:17:18;;;;;;;306.58;272.17;;;7.50;99.90;;;;;;5088100;28;20192;-76
2021/10/13 04:19:45;;;;;;;322.13;289.23;;;7.50;99.90;;;;;;5098419;28;20231;-76
2021/10/13 04:22:12;;;;;;;298.17;265.63;;;7.40;99.90;;;;;;5092489;28;20262;-76
2021/10/13 04:24:39;;;;;;;276.67;235.35;;;7.40;99.90;;;;;;5087747;28;20205;-76
2021/10/13 04:27:06;;;;;;;296.48;260.77;;;7.40;99.90;;;;;;5087021;28;20235;-76
2021/10/13 04:29:33;;;;;;;310.00;276.90;;;7.40;99.90;;;;;;5087322;28;20228;-76
2021/10/13 04:32:00;;;;;;;284.08;229.82;;;7.30;99.90;;;;;;5087496;28;20211;-76
2021/10/13 04:34:29;;;;;;;304.27;271.58;;;7.40;99.90;;;;;;5087504;28;20200;-76
2021/10/13 04:36:56;;;;;;;282.27;231.13;;;7.40;99.90;;;;;;5090629;28;20227;-76
2021/10/13 04:39:23;;;;;;;314.90;280.77;;;7.40;99.90;;;;;;5089731;28;20559;-76
2021/10/13 04:41:50;;;;;;;293.60;261.95;;;7.30;99.90;;;;;;5087589;28;20266;-76
2021/10/13 04:44:17;;;;;;;282.20;234.35;;;7.30;99.90;;;;;;5086770;28;20230;-76
2021/10/13 04:46:44;;;;;;;318.40;285.05;;;7.20;99.90;;;;;;5087393;28;20200;-76
2021/10/13 04:49:11;;;;;;;299.30;266.25;;;7.20;99.90;;;;;;5087612;28;20220;-76
2021/10/13 04:51:40;;;;;;;278.27;228.43;;;7.20;99.90;;;;;;5087164;28;20215;-76
2021/10/13 04:54:06;;;;;;;273.38;215.35;;;7.20;99.90;;;;;;5095461;28;20223;-76
2021/10/13 04:56:34;;;;;;;291.23;251.43;;;7.20;99.90;;;;;;5087424;28;20226;-76
2021/10/13 04:59:00;;;;;;;288.73;243.18;;;7.20;99.90;;;;;;5087138;28;20591;-76
2021/10/13 05:01:28;;;;;;;285.23;241.77;;;7.20;99.90;;;;;;5087829;28;20197;-76
2021/10/13 05:03:54;;;;;;;275.02;215.48;;;7.10;99.90;;;;;;5086445;28;20228;-76
2021/10/13 05:06:22;;;;;;;294.00;244.63;;;7.10;99.90;;;;;;5086759;28;20201;-76
2021/10/13 05:08:50;;;;;;;290.98;249.20;;;7.10;99.90;;;;;;5085735;28;20640;-76
2021/10/13 05:11:17;;;;;;;288.70;253.32;;;7.10;99.90;;;;;;5086836;28;20310;-76
2021/10/13 05:13:45;;;;;;;277.65;236.50;;;7.10;99.90;;;;;;5095478;28;20200;-76
2021/10/13 05:16:12;;;;;;;284.85;240.55;;;7.10;99.90;;;;;;5092049;28;20816;-76
2021/10/13 05:18:40;;;;;;;261.33;194.73;;;7.10;99.90;;;;;;5086489;28;20265;-76
2021/10/13 05:21:22;;;;;;;;;;;;;;;;;;;;;
2021/10/13 05:23:51;;;;;;;267.33;200.43;;;7.00;99.90;;;;;;5092410;28;20204;-76
2021/10/13 05:26:18;;;;;;;260.45;204.95;;;7.00;99.90;;;;;;5086496;28;20197;-76
2021/10/13 05:28:45;;;;;;;289.38;254.23;;;6.90;99.90;;;;;;5093363;28;20231;-76
2021/10/13 05:31:12;;;;;;;281.92;239.55;;;6.90;99.90;;;;;;5092575;28;20196;-76
2021/10/13 05:33:39;;;;;;;284.05;234.13;;;6.90;99.90;;;;;;5087042;28;20205;-76
2021/10/13 05:36:06;;;;;;;293.45;258.73;;;6.80;99.90;;;;;;5089311;28;20200;-76
2021/10/13 05:38:33;;;;;;;291.73;245.77;;;6.80;99.90;;;;;;5093777;28;20258;-77
2021/10/13 05:41:01;;;;;;;291.15;236.57;;;6.80;99.90;;;;;;5090844;28;20231;-76
2021/10/13 05:43:28;;;;;;;287.55;239.95;;;6.80;99.90;;;;;;5086760;28;20197;-76
2021/10/13 05:45:56;;;;;;;273.75;240.55;;;6.80;99.90;;;;;;5090694;28;20246;-76
2021/10/13 05:48:23;;;;;;;263.08;210.57;;;6.80;99.90;;;;;;5086266;28;20208;-77
2021/10/13 05:50:50;;;;;;;291.48;247.43;;;6.80;99.90;;;;;;5091117;28;20232;-77
2021/10/13 05:53:17;;;;;;;278.20;222.77;;;6.80;99.90;;;;;;5089168;28;20206;-76
2021/10/13 05:55:44;;;;;;;261.77;191.73;;;6.80;99.90;;;;;;5086190;28;20230;-76
2021/10/13 05:58:15;;;;;;;299.30;269.60;;;6.80;99.90;;;;;;5093401;28;20461;-76
2021/10/13 06:00:41;;;;;;;309.27;276.92;;;6.80;99.90;;;;;;5085801;28;20234;-76
2021/10/13 06:03:09;;;;;;;260.55;209.20;;;6.80;99.90;;;;;;5092032;28;20274;-76
2021/10/13 06:05:36;;;;;;;274.35;214.57;;;6.90;99.90;;;;;;5085442;28;20204;-76
2021/10/13 06:08:03;;;;;;;281.35;222.18;;;7.00;99.90;;;;;;5096200;28;20212;-76
2021/10/13 06:10:30;;;;;;;293.00;232.95;;;7.10;99.90;;;;;;5089189;28;20714;-76
2021/10/13 06:12:57;;;;;;;275.85;222.20;;;7.10;99.90;;;;;;5086189;28;20200;-76
2021/10/13 06:15:30;;;;;;;292.05;245.30;;;7.10;99.90;;;;;;5091499;28;20196;-76
2021/10/13 06:17:57;;;;;;;285.95;247.15;;;7.20;99.90;;;;;;5093270;28;20229;-76
2021/10/13 06:20:24;;;;;;;293.48;248.07;;;7.20;99.90;;;;;;5088169;28;20196;-76
2021/10/13 06:22:53;;;;;;;275.30;227.20;;;7.30;99.90;;;;;;5094678;28;20234;-76
2021/10/13 06:25:21;;;;;;;295.77;263.38;;;7.30;99.90;;;;;;5094513;28;20208;-76
2021/10/13 06:27:48;;;;;;;304.08;272.00;;;7.40;99.90;;;;;;5089283;28;20262;-76
2021/10/13 06:30:16;;;;;;;306.17;274.65;;;7.40;99.90;;;;;;5095089;28;20260;-76
2021/10/13 06:32:44;;;;;;;298.95;264.30;;;7.50;99.90;;;;;;5092755;28;20250;-76
2021/10/13 06:35:11;;;;;;;322.73;288.67;;;7.60;99.90;;;;;;5093956;28;20205;-76
2021/10/13 06:37:38;;;;;;;296.83;260.52;;;7.70;99.90;;;;;;5095743;28;20196;-76
2021/10/13 06:40:06;;;;;;;312.15;280.17;;;7.70;99.90;;;;;;5095945;28;20944;-76
2021/10/13 06:42:33;;;;;;;321.77;289.40;;;7.80;99.90;;;;;;5091330;28;20201;-76
2021/10/13 06:45:00;;;;;;;327.13;293.52;;;7.90;99.90;;;;;;5101355;28;20199;-76
2021/10/13 06:47:27;;;;;;;318.35;285.45;;;8.00;99.90;;;;;;5088776;28;20250;-76
2021/10/13 06:49:56;;;;;;;326.48;293.45;;;8.10;99.90;;;;;;5090083;28;20307;-76
2021/10/13 06:52:23;;;;;;;320.20;287.08;;;8.20;99.90;;;;;;5090145;28;20197;-76
2021/10/13 06:54:50;;;;;;;346.77;312.58;;;8.30;99.90;;;;;;5088953;28;20234;-76
2021/10/13 06:57:17;;;;;;;333.08;300.00;;;8.30;99.90;;;;;;5088694;28;20197;-76
2021/10/13 06:59:43;;;;;;;335.95;302.95;;;8.40;99.90;;;;;;5089125;28;20212;-76
2021/10/13 07:02:11;;;;;;;331.63;299.95;;;8.40;99.90;;;;;;5090826;28;20629;-76
2021/10/13 07:04:37;;;;;;;299.77;266.48;;;8.50;99.90;;;;;;5090805;28;20238;-76
2021/10/13 07:07:06;;;;;;;359.88;327.00;;;8.50;99.90;;;;;;5089492;28;20227;-76
2021/10/13 07:09:33;;;;;;;349.10;315.20;;;8.50;99.90;;;;;;5088605;28;20221;-76
2021/10/13 07:12:00;;;;;;;390.33;354.27;;;8.60;99.90;;;;;;5089199;28;20200;-76
2021/10/13 07:14:27;;;;;;;355.35;321.88;;;8.70;99.90;;;;;;5099593;28;20200;-76
2021/10/13 07:16:54;;;;;;;376.08;341.50;;;8.70;99.90;;;;;;5095482;28;20554;-76
2021/10/13 07:19:21;;;;;;;372.15;338.35;;;8.80;99.90;;;;;;5093621;28;20203;-76
2021/10/13 07:21:48;;;;;;;387.65;352.63;;;8.80;99.90;;;;;;5088300;28;20200;-76
2021/10/13 07:24:17;;;;;;;403.98;368.00;;;8.80;99.90;;;;;;5088366;28;20640;-76
2021/10/13 07:26:45;;;;;;;336.92;304.73;;;9.00;99.90;;;;;;5088983;28;20725;-76
2021/10/13 07:29:12;;;;;;;385.45;352.13;;;9.00;99.90;;;;;;5089297;28;20644;-76
2021/10/13 07:31:40;;;;;;;376.23;341.95;;;9.10;99.90;;;;;;5095204;28;20204;-76
2021/10/13 07:34:07;;;;;;;354.83;321.40;;;9.20;99.90;;;;;;5100062;28;20239;-76
2021/10/13 07:36:34;;;;;;;400.67;365.75;;;9.30;99.90;;;;;;5092423;28;20222;-76
2021/10/13 07:39:02;;;;;;;430.55;395.00;;;9.40;99.90;;;;;;5093074;28;20273;-76
2021/10/13 07:41:30;;;;;;;352.83;321.48;;;9.50;99.90;;;;;;5088458;28;20205;-76
2021/10/13 07:43:57;;;;;;;368.45;335.55;;;9.60;99.90;;;;;;5089085;28;20231;-76
2021/10/13 07:46:25;;;;;;;384.33;351.35;;;9.60;99.90;;;;;;5089213;28;20230;-76
2021/10/13 07:48:52;;;;;;;365.33;333.33;;;9.70;99.90;;;;;;5088541;28;20224;-76
2021/10/13 07:51:19;;;;;;;375.60;342.38;;;9.90;99.90;;;;;;5094298;28;20324;-76
2021/10/13 07:53:47;;;;;;;425.15;390.40;;;10.10;99.90;;;;;;5094308;28;20192;-76
2021/10/13 07:56:14;;;;;;;378.63;346.55;;;10.20;99.90;;;;;;5095364;28;20201;-76
2021/10/13 07:58:43;;;;;;;419.15;386.05;;;10.20;99.90;;;;;;5088606;28;20238;-76
2021/10/13 08:01:10;;;;;;;420.90;387.40;;;10.40;99.90;;;;;;5088831;28;20205;-76
2021/10/13 08:03:39;;;;;;;447.55;411.58;;;10.50;99.90;;;;;;5097102;28;20235;-76
2021/10/13 08:06:07;;;;;;;457.73;421.25;;;10.60;99.90;;;;;;5087900;28;20212;-76
2021/10/13 08:08:48;;;;;;;408.10;374.00;;;10.80;99.90;;;;;;5089029;28;20211;-76
2021/10/13 08:11:15;;;;;;;475.17;439.75;;;11.00;99.90;;;;;;5085417;28;20223;-76
2021/10/13 08:13:43;;;;;;;435.27;400.08;;;11.00;99.90;;;;;;5092637;28;20216;-76
2021/10/13 08:16:10;;;;;;;469.23;433.85;;;11.10;99.90;;;;;;5095161;28;20212;-76
2021/10/13 08:18:37;;;;;;;449.77;413.88;;;11.20;99.90;;;;;;5088274;28;20588;-76
2021/10/13 08:21:04;;;;;;;489.88;451.45;;;11.30;99.90;;;;;;5087481;28;20209;-76
2021/10/13 08:23:31;;;;;;;428.85;393.88;;;11.50;99.90;;;;;;5093740;28;20208;-76
2021/10/13 08:26:00;;;;;;;521.25;482.17;;;11.70;99.90;;;;;;5088625;28;20197;-76
2021/10/13 08:28:27;;;;;;;496.23;460.27;;;11.80;99.90;;;;;;5094717;28;20206;-76
2021/10/13 08:30:56;;;;;;;470.13;434.52;;;12.00;99.90;;;;;;5091996;28;20256;-77
2021/10/13 08:33:23;;;;;;;524.65;486.67;;;12.20;99.90;;;;;;5087151;28;20201;-76
2021/10/13 08:35:50;;;;;;;523.45;486.80;;;12.50;99.90;;;;;;5087385;28;20208;-76
2021/10/13 08:38:18;;;;;;;483.65;447.33;;;12.90;99.90;;;;;;5087590;28;20234;-76
2021/10/13 08:40:45;;;;;;;522.00;484.02;;;13.30;99.90;;;;;;5087525;28;20206;-77
2021/10/13 08:43:12;;;;;;;512.75;476.77;;;13.50;99.90;;;;;;5094234;28;20660;-76
2021/10/13 08:45:40;;;;;;;550.63;512.70;;;13.80;99.90;;;;;;5087271;28;20208;-76
2021/10/13 08:48:10;;;;;;;545.50;507.52;;;14.20;99.90;;;;;;5097947;28;20197;-77
2021/10/13 08:50:39;;;;;;;538.47;501.23;;;14.50;99.90;;;;;;5094756;28;20251;-77
2021/10/13 08:53:08;;;;;;;514.28;477.77;;;14.80;99.90;;;;;;5097360;28;20196;-76
2021/10/13 08:55:37;;;;;;;488.42;455.83;;;15.10;99.90;;;;;;5089830;28;20784;-77
2021/10/13 08:58:12;;;;;;;488.80;455.83;;;15.30;99.90;;;;;;5091993;28;20560;-76
2021/10/13 09:00:39;;;;;;;507.33;472.60;;;15.50;99.90;;;;;;5087190;28;20584;-77
2021/10/13 09:03:08;;;;;;;459.90;428.88;;;15.60;99.90;;;;;;5090670;28;20232;-76
2021/10/13 09:05:43;;;;;;;493.92;460.63;;;15.90;99.90;;;;;;5087562;28;20206;-76
2021/10/13 09:08:10;;;;;;;499.48;465.88;;;16.10;99.90;;;;;;5093553;28;20206;-76
2021/10/13 09:10:38;;;;;;;455.27;425.05;;;16.40;99.90;;;;;;5086637;28;20244;-77
2021/10/13 09:13:13;;;;;;;460.45;429.73;;;16.50;99.90;;;;;;5086529;28;20199;-77
2021/10/13 09:15:41;;;;;;;420.85;392.50;;;16.60;99.90;;;;;;5093747;28;20206;-77
2021/10/13 09:18:10;;;;;;;427.60;399.63;;;16.60;99.90;;;;;;5089942;28;20229;-76
2021/10/13 09:20:39;;;;;;;460.55;429.40;;;16.70;99.90;;;;;;5087202;28;20215;-77
2021/10/13 09:23:08;;;;;;;479.02;447.17;;;16.70;99.90;;;;;;5086933;28;20225;-77
2021/10/13 09:25:37;;;;;;;430.10;401.58;;;16.70;99.90;;;;;;5087232;28;20252;-77
2021/10/13 09:28:05;;;;;;;461.30;430.20;;;16.70;99.90;;;;;;5091475;28;20259;-76
2021/10/13 09:30:34;;;;;;;478.52;446.38;;;16.90;99.90;;;;;;5087360;28;20221;-77
2021/10/13 09:33:17;;;;;;;465.65;434.40;;;17.10;99.90;;;;;;5092946;28;21152;-77
2021/10/13 09:35:47;;;;;;;472.88;441.25;;;17.30;99.90;;;;;;5086825;28;20211;-77
2021/10/13 09:38:16;;;;;;;430.48;401.77;;;17.50;99.90;;;;;;5087443;28;20203;-77
2021/10/13 09:40:44;;;;;;;467.67;436.50;;;17.50;99.90;;;;;;5086843;28;20210;-77
2021/10/13 09:43:30;;;;;;;462.08;430.90;;;17.40;99.90;;;;;;5087236;28;20638;-77
2021/10/13 09:46:05;;;;;;;452.58;422.42;;;17.30;99.90;;;;;;5092468;28;20233;-76
2021/10/13 09:48:35;;;;;;;420.58;393.13;;;17.10;99.90;;;;;;5091483;28;20248;-76
2021/10/13 09:51:14;;;;;;;426.08;397.92;;;17.10;99.90;;;;;;5088330;28;20258;-76
2021/10/13 09:53:41;;;;;;;424.35;396.33;;;17.10;99.90;;;;;;5097032;28;20715;-77
2021/10/13 09:56:27;;;;;;;395.52;369.40;;;17.20;99.90;;;;;;5093172;28;20207;-76
2021/10/13 09:59:12;;;;;;;368.25;345.33;;;17.20;99.90;;;;;;5092023;28;20274;-76
2021/10/13 10:08:22;;;;;;;404.35;378.25;;;17.20;99.90;;;;;;5110471;28;20205;-76
2021/10/13 10:11:07;;;;;;;409.17;382.33;;;17.00;99.90;;;;;;5104048;28;20202;-75
2021/10/13 10:13:35;;;;;;;385.02;360.25;;;16.80;99.90;;;;;;5103522;28;20567;-76
2021/10/13 10:16:02;;;;;;;422.20;394.02;;;16.60;99.90;;;;;;5103682;28;20207;-76
2021/10/13 10:18:34;;;;;;;391.35;365.42;;;16.50;99.90;;;;;;5103607;28;20201;-76
2021/10/13 10:21:18;;;;;;;396.63;371.38;;;16.40;99.90;;;;;;5110626;28;20267;-75
2021/10/13 10:23:48;;;;;;;424.98;396.92;;;16.30;99.90;;;;;;5108598;28;20818;-76
2021/10/13 10:26:33;;;;;;;402.45;376.13;;;16.20;99.90;;;;;;5103795;28;20244;-76
2021/10/13 10:29:02;;;;;;;389.90;365.17;;;16.10;99.90;;;;;;5103144;28;20244;-76
2021/10/13 10:31:41;;;;;;;411.17;384.17;;;15.70;99.90;;;;;;5102596;28;20197;-76
2021/10/13 10:34:14;;;;;;;397.95;372.00;;;15.70;99.90;;;;;;5103375;28;20235;-76
2021/10/13 10:37:11;;;;;;;416.75;389.30;;;15.80;99.90;;;;;;5109516;28;20235;-76
2021/10/13 10:40:00;;;;;;;452.27;422.52;;;15.90;99.90;;;;;;5102794;28;20230;-76
2021/10/13 10:43:02;;;;;;;403.73;378.08;;;16.00;99.90;;;;;;5106918;28;20204;-76
2021/10/13 10:45:38;;;;;;;440.77;411.27;;;16.10;99.90;;;;;;5109425;28;20202;-76
2021/10/13 10:48:16;;;;;;;437.13;408.55;;;16.20;99.90;;;;;;5105944;28;20255;-76
2021/10/13 10:51:02;;;;;;;425.05;397.80;;;16.20;99.90;;;;;;5102436;28;20194;-76
2021/10/13 10:53:40;;;;;;;438.77;410.17;;;16.30;99.90;;;;;;5102777;28;20228;-76
2021/10/13 10:56:27;;;;;;;419.40;392.33;;;16.30;99.90;;;;;;5102970;28;20244;-75
2021/10/13 10:59:03;;;;;;;417.42;390.73;;;16.20;99.90;;;;;;5114100;28;20241;-76
2021/10/13 11:01:30;;;;;;;443.45;414.27;;;16.20;99.90;;;;;;5104095;28;20233;-76
2021/10/13 11:03:58;;;;;;;404.15;378.33;;;16.30;99.90;;;;;;5105045;28;20593;-76
2021/10/13 11:06:27;;;;;;;439.48;410.50;;;16.30;99.90;;;;;;5110041;28;20215;-76
2021/10/13 11:08:56;;;;;;;443.48;414.70;;;16.40;99.90;;;;;;5102420;28;20288;-77
2021/10/13 11:11:27;;;;;;;405.17;379.02;;;16.30;99.90;;;;;;5105400;28;20198;-76
2021/10/13 11:14:02;;;;;;;416.75;389.85;;;16.10;99.90;;;;;;5106916;28;20205;-75
2021/10/13 11:16:29;;;;;;;448.25;418.63;;;16.00;99.90;;;;;;5087860;28;20207;-76
2021/10/13 11:19:07;;;;;;;463.27;432.95;;;15.80;99.90;;;;;;5092738;28;20654;-76
2021/10/13 11:21:34;;;;;;;427.67;399.77;;;15.60;99.90;;;;;;5088331;28;20203;-76
2021/10/13 11:24:01;;;;;;;407.00;381.02;;;15.70;99.90;;;;;;5088956;28;20234;-75
2021/10/13 11:26:29;;;;;;;427.85;399.60;;;15.60;99.90;;;;;;5088937;28;20253;-76
2021/10/13 11:28:56;;;;;;;460.63;430.40;;;15.50;99.90;;;;;;5088371;28;20284;-76
2021/10/13 11:31:23;;;;;;;416.45;389.10;;;15.50;99.90;;;;;;5088249;28;20255;-76
2021/10/13 11:33:51;;;;;;;416.85;389.50;;;15.40;99.90;;;;;;5088233;28;20213;-76
2021/10/13 11:36:19;;;;;;;449.15;419.90;;;15.40;99.90;;;;;;5088162;28;20658;-76
2021/10/13 11:38:46;;;;;;;416.70;389.25;;;15.40;99.90;;;;;;5088245;28;20200;-76
2021/10/13 11:41:15;;;;;;;448.20;418.33;;;15.30;99.90;;;;;;5088522;28;20211;-76
2021/10/13 11:43:45;;;;;;;454.58;424.70;;;15.20;99.90;;;;;;5088912;28;20232;-76
2021/10/13 11:46:16;;;;;;;425.08;398.00;;;15.10;99.90;;;;;;5088366;28;20203;-77
2021/10/13 11:48:43;;;;;;;441.23;412.48;;;14.90;99.90;;;;;;5091794;28;20202;-76
2021/10/13 11:51:13;;;;;;;469.27;438.63;;;14.80;99.90;;;;;;5096148;28;20223;-77
2021/10/13 11:53:40;;;;;;;431.63;403.67;;;14.60;99.90;;;;;;5097538;28;20206;-76
2021/10/13 11:56:11;;;;;;;459.38;429.55;;;14.70;99.90;;;;;;5088406;28;20215;-76
2021/10/13 11:58:39;;;;;;;428.48;401.27;;;14.70;99.90;;;;;;5092952;28;20205;-76
2021/10/13 12:01:07;;;;;;;445.13;415.98;;;14.80;99.90;;;;;;5088408;28;20261;-76
2021/10/13 12:03:36;;;;;;;458.38;428.70;;;14.80;99.90;;;;;;5088267;28;20237;-76
2021/10/13 12:06:04;;;;;;;470.50;439.15;;;14.70;99.90;;;;;;5088452;28;20207;-76
2021/10/13 12:08:33;;;;;;;431.70;403.55;;;14.80;99.90;;;;;;5092477;28;20260;-76
2021/10/13 12:11:06;;;;;;;445.58;416.67;;;14.90;99.90;;;;;;5088543;28;20210;-76
2021/10/13 12:13:36;;;;;;;449.92;420.92;;;14.90;99.90;;;;;;5088096;28;20267;-76
2021/10/13 12:16:05;;;;;;;429.40;401.13;;;15.00;99.90;;;;;;5088053;28;20272;-76
2021/10/13 12:18:36;;;;;;;462.60;432.10;;;15.10;99.90;;;;;;5087884;28;20202;-76
2021/10/13 12:21:13;;;;;;;429.23;401.85;;;15.10;99.90;;;;;;5088027;28;20199;-76
2021/10/13 12:23:44;;;;;;;436.13;406.90;;;15.10;99.90;;;;;;5088682;28;20229;-76
2021/10/13 12:26:16;;;;;;;460.38;430.17;;;15.10;99.90;;;;;;5089020;28;20220;-76
2021/10/13 12:28:45;;;;;;;432.60;404.73;;;15.20;99.90;;;;;;5086824;28;20207;-76
2021/10/13 12:31:14;;;;;;;440.27;411.35;;;15.20;99.90;;;;;;5096105;28;20225;-76
2021/10/13 12:33:48;;;;;;;466.45;436.00;;;15.40;99.90;;;;;;5098057;28;20560;-76
2021/10/13 12:36:18;;;;;;;420.65;393.50;;;15.40;99.90;;;;;;5091663;28;20383;-76